Time;durP1;ratioP1;P1;durP2;ratioP2;P2;SDS_P1;SDS_P2;PMS_P1;PMS_P2;Temp;Humidity;BMP_temperature;BMP_pressure;BME280_temperature;BME280_humidity;BME280_pressure;Samples;Min_cycle;Max_cycle;Signal;HPM_P1;HPM_P2
2021/09/02 00:01:25;;;;;;;8.18;5.00;;;;;;;13.30;85.48;93602.59;5112728;28;20043;-81
2021/09/02 00:03:52;;;;;;;6.65;5.00;;;;;;;13.26;85.88;93580.78;5112727;28;20100;-82
2021/09/02 00:06:19;;;;;;;8.43;5.05;;;;;;;13.33;86.11;93589.25;5113089;28;20089;-82
2021/09/02 00:08:46;;;;;;;7.03;4.35;;;;;;;13.37;85.75;93580.06;5112865;28;20067;-82
2021/09/02 00:11:12;;;;;;;7.55;4.60;;;;;;;13.33;85.96;93586.69;5113076;28;20044;-82
2021/09/02 00:13:41;;;;;;;6.93;4.78;;;;;;;13.32;85.52;93593.63;5112985;28;20047;-82
2021/09/02 00:16:08;;;;;;;7.18;5.32;;;;;;;13.32;85.88;93595.41;5112687;28;20047;-82
2021/09/02 00:18:35;;;;;;;8.00;5.10;;;;;;;13.26;86.03;93585.94;5104830;28;20040;-82
2021/09/02 00:21:01;;;;;;;6.07;4.40;;;;;;;12.47;85.84;93471.41;5092242;28;20044;-82
2021/09/02 00:23:28;;;;;;;7.60;5.03;;;;;;;12.99;85.90;93553.53;5092037;28;20071;-82
2021/09/02 00:25:55;;;;;;;8.77;5.57;;;;;;;13.15;85.14;93577.94;5091777;28;20052;-82
2021/09/02 00:28:22;;;;;;;8.20;4.97;;;;;;;13.14;85.26;93576.38;5091837;28;20044;-82
2021/09/02 00:30:50;;;;;;;7.88;5.13;;;;;;;13.11;85.20;93579.38;5091870;28;20497;-83
2021/09/02 00:33:19;;;;;;;8.82;5.20;;;;;;;12.94;85.43;93553.38;5091772;28;20052;-82
2021/09/02 00:35:47;;;;;;;6.10;5.13;;;;;;;12.88;85.86;93560.19;5092079;28;20047;-84
2021/09/02 00:38:15;;;;;;;8.07;5.43;;;;;;;12.81;86.40;93567.19;5091281;28;20058;-84
2021/09/02 00:40:41;;;;;;;7.03;5.03;;;;;;;12.48;86.85;93537.38;5091574;28;20492;-85
2021/09/02 00:43:08;;;;;;;9.27;5.20;;;;;;;12.88;87.43;93591.13;5091620;28;20048;-84
2021/09/02 00:45:35;;;;;;;8.32;4.80;;;;;;;12.02;86.93;93460.31;5091440;28;20048;-84
2021/09/02 00:48:04;;;;;;;8.10;5.15;;;;;;;12.79;87.12;93564.84;5091130;28;20538;-84
2021/09/02 00:50:32;;;;;;;9.30;5.45;;;;;;;12.73;87.44;93559.75;5092145;28;20048;-83
2021/09/02 00:52:59;;;;;;;9.75;5.05;;;;;;;12.92;87.31;93574.22;5091810;28;20044;-81
2021/09/02 00:55:26;;;;;;;9.63;5.30;;;;;;;12.91;88.12;93564.13;5091337;28;20052;-82
2021/09/02 00:57:53;;;;;;;7.70;5.63;;;;;;;12.87;89.37;93574.06;5091605;28;20040;-82
2021/09/02 01:00:20;;;;;;;8.38;5.55;;;;;;;12.76;89.15;93578.16;5091345;28;20043;-82
2021/09/02 01:02:48;;;;;;;9.45;5.57;;;;;;;12.78;88.80;93570.22;5091400;28;20055;-82
2021/09/02 01:05:18;;;;;;;8.65;5.60;;;;;;;12.45;89.52;93512.84;5090551;28;20170;-82
2021/09/02 01:07:45;;;;;;;6.70;4.90;;;;;;;12.73;89.68;93552.78;5091280;28;20408;-82
2021/09/02 01:10:12;;;;;;;9.60;5.72;;;;;;;12.84;89.26;93571.94;5091377;28;20059;-82
2021/09/02 01:12:40;;;;;;;9.10;5.95;;;;;;;12.78;89.91;93565.84;5091236;28;20048;-83
2021/09/02 01:15:10;;;;;;;8.45;5.60;;;;;;;12.78;89.11;93568.41;5090871;28;20048;-81
2021/09/02 01:17:38;;;;;;;10.45;6.70;;;;;;;12.83;90.04;93557.47;5091353;28;20082;-81
2021/09/02 01:20:07;;;;;;;8.18;5.65;;;;;;;12.81;89.77;93549.16;5091095;28;20101;-81
2021/09/02 01:22:36;;;;;;;8.90;5.80;;;;;;;13.00;88.78;93556.91;5091000;28;20416;-81
2021/09/02 01:25:07;;;;;;;10.05;6.00;;;;;;;12.98;87.95;93548.56;5090626;28;20066;-80
2021/09/02 01:27:34;;;;;;;8.98;5.68;;;;;;;12.90;88.66;93537.56;5090890;28;20072;-81
2021/09/02 01:30:06;;;;;;;12.73;6.20;;;;;;;12.95;89.25;93539.47;5090558;28;20056;-81
2021/09/02 01:32:36;;;;;;;8.25;6.18;;;;;;;12.61;88.84;93478.00;5091402;28;20051;-81
2021/09/02 01:35:05;;;;;;;8.73;6.30;;;;;;;12.78;88.30;93498.03;5091243;28;20420;-81
2021/09/02 01:37:39;;;;;;;7.20;5.65;;;;;;;12.97;89.94;93534.91;5090035;28;20040;-81
2021/09/02 01:40:09;;;;;;;9.68;6.65;;;;;;;12.72;89.47;93486.03;5090995;28;20044;-81
2021/09/02 01:42:36;;;;;;;8.68;6.45;;;;;;;12.64;88.30;93485.28;5090417;28;20150;-81
2021/09/02 01:45:04;;;;;;;11.27;6.18;;;;;;;13.17;88.03;93545.00;5090214;28;20055;-81
2021/09/02 01:47:32;;;;;;;9.32;5.82;;;;;;;12.82;88.49;93484.50;5090779;28;20048;-81
2021/09/02 01:50:07;;;;;;;9.13;6.50;;;;;;;13.33;89.05;93551.34;5090858;28;20469;-81
2021/09/02 01:52:37;;;;;;;9.27;6.88;;;;;;;13.30;88.85;93548.41;5090391;28;20070;-81
2021/09/02 01:55:05;;;;;;;10.65;7.45;;;;;;;12.98;87.55;93497.00;5090079;28;20451;-81
2021/09/02 01:57:36;;;;;;;15.90;11.45;;;;;;;12.90;88.28;93486.00;5091113;28;20305;-81
2021/09/02 02:00:04;;;;;;;18.48;14.95;;;;;;;12.98;87.42;93478.97;5090687;28;20044;-82
2021/09/02 02:02:32;;;;;;;22.83;19.75;;;;;;;13.07;87.70;93485.41;5090503;28;20161;-82
2021/09/02 02:04:59;;;;;;;17.63;14.55;;;;;;;13.10;87.06;93505.56;5089915;28;20097;-83
2021/09/02 02:07:26;;;;;;;16.65;13.27;;;;;;;13.52;87.61;93560.88;5089886;28;20127;-82
2021/09/02 02:09:56;;;;;;;15.95;11.93;;;;;;;13.14;88.08;93500.78;5089878;28;20048;-83
2021/09/02 02:12:23;;;;;;;14.40;10.07;;;;;;;13.07;88.14;93481.03;5089854;28;20074;-82
2021/09/02 02:14:51;;;;;;;11.13;8.18;;;;;;;13.15;87.49;93492.06;5089507;28;20048;-82
2021/09/02 02:17:18;;;;;;;9.48;6.55;;;;;;;13.16;87.58;93471.19;5090057;28;20058;-82
2021/09/02 02:19:45;;;;;;;8.20;5.72;;;;;;;12.90;87.77;93426.69;5082288;28;20070;-82
2021/09/02 02:22:12;;;;;;;8.98;6.80;;;;;;;13.32;87.51;93503.31;5079925;28;20099;-82
2021/09/02 02:24:39;;;;;;;8.32;5.97;;;;;;;13.64;87.21;93530.72;5077778;28;20056;-82
2021/09/02 02:27:08;;;;;;;7.93;5.65;;;;;;;13.20;87.40;93468.97;5079017;28;20483;-81
2021/09/02 02:29:38;;;;;;;7.40;5.90;;;;;;;13.16;86.82;93462.66;5079889;28;20084;-82
2021/09/02 02:32:08;;;;;;;8.80;6.30;;;;;;;13.33;87.29;93478.31;5078999;28;20041;-82
2021/09/02 02:34:35;;;;;;;9.38;5.75;;;;;;;13.36;87.73;93477.88;5078233;28;20060;-82
2021/09/02 02:37:02;;;;;;;11.95;6.00;;;;;;;13.36;87.79;93481.25;5080152;28;20044;-82
2021/09/02 02:39:29;;;;;;;7.40;5.50;;;;;;;13.45;87.33;93493.81;5079680;28;20125;-82
2021/09/02 02:41:57;;;;;;;8.55;5.90;;;;;;;13.39;87.33;93477.44;5077385;28;20056;-83
2021/09/02 02:44:24;;;;;;;9.93;6.10;;;;;;;13.73;88.48;93538.94;5078961;28;20488;-83
2021/09/02 02:46:51;;;;;;;9.48;6.60;;;;;;;13.67;88.55;93535.44;5074873;28;20485;-81
2021/09/02 02:49:19;;;;;;;10.73;6.40;;;;;;;13.27;88.28;93481.75;5069763;28;20080;-82
2021/09/02 02:51:47;;;;;;;8.55;6.40;;;;;;;13.54;89.28;93525.28;5069346;28;20055;-82
2021/09/02 02:54:16;;;;;;;10.20;6.18;;;;;;;13.57;89.69;93535.19;5069074;28;20141;-82
2021/09/02 02:56:43;;;;;;;9.02;6.95;;;;;;;13.40;87.78;93522.06;5069513;28;20052;-82
2021/09/02 02:59:10;;;;;;;9.18;6.00;;;;;;;13.19;88.67;93519.00;5069914;28;20143;-82
2021/09/02 03:01:37;;;;;;;8.88;6.45;;;;;;;13.48;88.14;93545.81;5069229;28;20050;-82
2021/09/02 03:04:08;;;;;;;9.07;6.40;;;;;;;12.76;87.51;93438.16;5069354;28;20417;-82
2021/09/02 03:06:36;;;;;;;8.85;6.80;;;;;;;13.49;88.23;93542.25;5068424;28;20102;-82
2021/09/02 03:09:03;;;;;;;9.38;6.32;;;;;;;13.59;88.85;93541.72;5069314;28;20048;-82
2021/09/02 03:11:31;;;;;;;10.23;6.05;;;;;;;13.55;89.35;93537.97;5069088;28;20098;-82
2021/09/02 03:13:59;;;;;;;11.70;6.78;;;;;;;13.17;88.44;93485.66;5068820;28;20054;-82
2021/09/02 03:16:29;;;;;;;10.95;6.97;;;;;;;13.08;88.50;93456.81;5068530;28;20040;-82
2021/09/02 03:18:55;;;;;;;9.80;7.20;;;;;;;13.78;88.32;93558.94;5068438;28;20513;-83
2021/09/02 03:21:22;;;;;;;10.35;6.70;;;;;;;13.75;87.64;93552.41;5069179;28;20075;-82
2021/09/02 03:23:51;;;;;;;8.45;6.32;;;;;;;13.80;87.38;93557.69;5068984;28;20498;-83
2021/09/02 03:26:18;;;;;;;9.48;6.65;;;;;;;13.83;87.06;93557.25;5068407;28;20052;-82
2021/09/02 03:28:44;;;;;;;9.25;6.75;;;;;;;13.79;87.20;93550.19;5072629;28;20490;-81
2021/09/02 03:31:11;;;;;;;8.82;6.22;;;;;;;13.82;86.72;93550.53;5057881;28;20055;-82
2021/09/02 03:33:38;;;;;;;10.55;6.63;;;;;;;13.94;86.42;93571.22;5053237;28;20056;-83
2021/09/02 03:36:05;;;;;;;12.05;7.45;;;;;;;13.95;86.35;93564.25;5053220;28;20461;-82
2021/09/02 03:38:32;;;;;;;7.47;6.22;;;;;;;13.59;85.64;93505.56;5053231;28;20053;-82
2021/09/02 03:41:00;;;;;;;8.77;5.60;;;;;;;14.08;85.44;93563.25;5052584;28;20110;-82
2021/09/02 03:43:27;;;;;;;9.55;6.53;;;;;;;14.06;85.51;93553.16;5052348;28;20045;-82
2021/09/02 03:45:54;;;;;;;7.90;5.68;;;;;;;14.17;84.57;93559.34;5052401;28;20048;-80
2021/09/02 03:48:21;;;;;;;9.35;5.95;;;;;;;13.90;85.51;93524.38;5052836;28;20398;-81
2021/09/02 03:50:48;;;;;;;8.27;6.10;;;;;;;14.18;85.50;93566.09;5052252;28;20044;-83
2021/09/02 03:53:15;;;;;;;9.70;6.70;;;;;;;14.24;85.21;93561.81;5051983;28;20149;-82
2021/09/02 03:55:42;;;;;;;7.95;6.15;;;;;;;14.12;84.72;93543.72;5052239;28;20045;-82
2021/09/02 03:58:10;;;;;;;10.02;6.47;;;;;;;14.25;84.49;93566.75;5052433;28;20071;-82
2021/09/02 04:00:37;;;;;;;8.65;6.32;;;;;;;14.24;84.74;93572.16;5051962;28;20069;-82
2021/09/02 04:03:04;;;;;;;9.90;6.30;;;;;;;14.10;84.66;93553.47;5052281;28;20057;-83
2021/09/02 04:05:31;;;;;;;9.35;6.22;;;;;;;14.01;85.24;93540.91;5051908;28;20457;-82
2021/09/02 04:07:58;;;;;;;9.98;6.63;;;;;;;14.28;85.35;93581.81;5052081;28;20044;-82
2021/09/02 04:10:25;;;;;;;11.90;6.53;;;;;;;13.95;85.17;93525.50;5052379;28;20056;-82
2021/09/02 04:12:52;;;;;;;9.95;6.05;;;;;;;14.33;85.56;93581.16;5052142;28;20056;-82
2021/09/02 04:15:20;;;;;;;10.85;6.03;;;;;;;14.30;85.38;93579.78;5052321;28;20044;-81
2021/09/02 04:17:47;;;;;;;9.98;6.70;;;;;;;14.08;84.40;93545.19;5052103;28;20140;-82
2021/09/02 04:20:14;;;;;;;13.02;7.63;;;;;;;14.28;84.06;93575.88;5052236;28;20056;-81
2021/09/02 04:22:41;;;;;;;12.30;7.78;;;;;;;14.21;82.56;93585.53;5051716;28;20524;-81
2021/09/02 04:25:09;;;;;;;16.60;10.80;;;;;;;14.17;83.36;93590.34;5052016;28;20052;-81
2021/09/02 04:27:36;;;;;;;12.90;8.45;;;;;;;14.08;85.59;93591.66;5051698;28;20107;-81
2021/09/02 04:30:03;;;;;;;14.07;7.50;;;;;;;14.00;84.71;93577.28;5051805;28;20045;-81
2021/09/02 04:32:31;;;;;;;8.35;6.63;;;;;;;14.07;83.45;93590.09;5051825;28;20440;-83
2021/09/02 04:34:58;;;;;;;10.88;6.70;;;;;;;13.86;84.36;93548.28;5051276;28;20489;-82
2021/09/02 04:37:25;;;;;;;20.05;13.77;;;;;;;14.07;83.91;93585.72;5051410;28;20494;-81
2021/09/02 04:39:52;;;;;;;17.52;10.70;;;;;;;14.16;84.06;93589.56;5050718;28;20057;-80
2021/09/02 04:42:19;;;;;;;21.25;12.80;;;;;;;14.02;84.34;93557.16;5051546;28;20099;-81
2021/09/02 04:44:46;;;;;;;12.73;8.70;;;;;;;14.18;84.02;93594.50;5051544;28;20053;-82
2021/09/02 04:47:12;;;;;;;12.57;7.55;;;;;;;14.02;84.29;93588.97;5051248;28;20057;-82
2021/09/02 04:49:41;;;;;;;10.68;8.43;;;;;;;14.06;84.81;93594.47;5051079;28;20578;-82
2021/09/02 04:52:08;;;;;;;10.02;7.57;;;;;;;13.78;84.54;93590.69;5051529;28;20053;-82
2021/09/02 04:54:35;;;;;;;12.95;8.18;;;;;;;13.68;85.74;93588.66;5050864;28;20056;-83
2021/09/02 04:57:02;;;;;;;12.35;7.60;;;;;;;13.71;86.18;93597.75;5050945;28;20041;-82
2021/09/02 04:59:28;;;;;;;9.13;8.10;;;;;;;13.08;86.54;93502.44;5051113;28;20056;-81
2021/09/02 05:01:55;;;;;;;17.52;10.05;;;;;;;13.73;87.42;93596.53;5051107;28;20067;-82
2021/09/02 05:04:22;;;;;;;11.30;8.43;;;;;;;13.63;86.42;93565.28;5050769;28;20498;-82
2021/09/02 05:06:50;;;;;;;14.45;11.27;;;;;;;13.86;85.15;93599.94;5051231;28;20056;-82
2021/09/02 05:09:17;;;;;;;10.00;6.80;;;;;;;13.36;87.82;93597.34;5050895;28;20045;-82
2021/09/02 05:11:44;;;;;;;9.93;7.32;;;;;;;13.65;87.09;93612.31;5050792;28;20080;-82
2021/09/02 05:14:11;;;;;;;10.73;6.80;;;;;;;13.57;85.80;93600.47;5050923;28;20045;-83
2021/09/02 05:16:38;;;;;;;12.02;7.20;;;;;;;13.12;87.51;93567.25;5050762;28;20060;-81
2021/09/02 05:19:05;;;;;;;10.70;7.25;;;;;;;13.18;88.23;93611.03;5050631;28;20571;-83
2021/09/02 05:21:32;;;;;;;10.02;7.50;;;;;;;13.30;89.08;93620.66;5051108;28;20418;-83
2021/09/02 05:24:00;;;;;;;8.77;7.18;;;;;;;13.06;89.44;93597.31;5050397;28;20061;-82
2021/09/02 05:26:27;;;;;;;10.52;8.05;;;;;;;13.26;88.66;93596.28;5050398;28;20497;-82
2021/09/02 05:28:54;;;;;;;8.88;7.03;;;;;;;13.35;88.92;93608.69;5050675;28;20071;-82
2021/09/02 05:31:21;;;;;;;8.50;7.45;;;;;;;13.21;88.72;93599.50;5050362;28;20048;-82
2021/09/02 05:33:47;;;;;;;9.20;7.53;;;;;;;13.38;87.19;93615.19;5050263;28;20049;-82
2021/09/02 05:36:15;;;;;;;11.90;7.40;;;;;;;13.45;87.87;93628.81;5050186;28;20053;-82
2021/09/02 05:38:42;;;;;;;8.43;6.30;;;;;;;13.18;88.23;93548.34;5050441;28;20049;-82
2021/09/02 05:41:10;;;;;;;9.25;7.00;;;;;;;13.68;86.72;93590.44;5050553;28;20053;-83
2021/09/02 05:43:40;;;;;;;8.98;6.80;;;;;;;13.93;86.40;93592.09;5050176;28;20055;-83
2021/09/02 05:46:09;;;;;;;8.82;7.30;;;;;;;14.09;83.39;93626.81;5049756;28;20064;-83
2021/09/02 05:48:36;;;;;;;12.65;6.93;;;;;;;14.12;83.93;93591.00;5050096;28;20057;-83
2021/09/02 05:51:03;;;;;;;9.57;6.93;;;;;;;13.89;84.07;93573.66;5060286;28;20049;-83
2021/09/02 05:53:30;;;;;;;9.85;6.57;;;;;;;14.21;84.18;93619.09;5068359;28;20052;-82
2021/09/02 05:56:00;;;;;;;9.02;6.80;;;;;;;14.07;82.64;93585.72;5070044;28;20087;-82
2021/09/02 05:58:29;;;;;;;11.93;7.00;;;;;;;14.48;82.61;93626.47;5070186;28;20055;-83
2021/09/02 06:00:56;;;;;;;9.43;7.20;;;;;;;14.49;82.22;93600.38;5070086;28;20580;-82
2021/09/02 06:03:23;;;;;;;14.13;7.85;;;;;;;14.89;81.63;93629.97;5070159;28;20135;-83
2021/09/02 06:05:50;;;;;;;13.45;7.25;;;;;;;14.83;80.84;93600.63;5070332;28;20052;-82
2021/09/02 06:08:17;;;;;;;15.70;8.23;;;;;;;15.15;80.57;93625.34;5069901;28;20059;-83
2021/09/02 06:10:44;;;;;;;12.35;7.90;;;;;;;14.89;79.57;93562.72;5069850;28;20056;-82
2021/09/02 06:13:11;;;;;;;22.23;9.10;;;;;;;14.90;78.88;93555.78;5070257;28;20443;-82
2021/09/02 06:15:39;;;;;;;10.35;6.22;;;;;;;14.89;78.13;93624.00;5070347;28;20390;-82
2021/09/02 06:18:06;;;;;;;8.30;6.40;;;;;;;14.24;80.60;93597.97;5070290;28;20052;-81
2021/09/02 06:20:33;;;;;;;11.07;6.63;;;;;;;14.57;80.25;93617.34;5069902;28;20489;-82
2021/09/02 06:23:00;;;;;;;10.57;7.47;;;;;;;14.47;81.29;93637.78;5070160;28;20052;-82
2021/09/02 06:25:26;;;;;;;8.88;7.20;;;;;;;14.48;80.06;93601.38;5070058;28;20398;-83
2021/09/02 06:27:53;;;;;;;8.73;6.97;;;;;;;14.71;81.20;93636.00;5070024;28;20053;-83
2021/09/02 06:30:20;;;;;;;11.27;6.50;;;;;;;14.73;78.98;93615.09;5070162;28;20057;-82
2021/09/02 06:32:48;;;;;;;8.93;6.55;;;;;;;15.02;78.84;93639.31;5062197;28;20053;-82
2021/09/02 06:35:15;;;;;;;8.43;6.20;;;;;;;15.14;77.95;93639.28;5053081;28;20078;-82
2021/09/02 06:37:42;;;;;;;8.32;6.20;;;;;;;14.89;78.52;93592.97;5059587;28;20052;-82
2021/09/02 06:40:11;;;;;;;8.93;6.35;;;;;;;15.13;76.96;93644.69;5055100;28;20053;-82
2021/09/02 06:42:38;;;;;;;8.15;6.43;;;;;;;15.16;77.43;93647.63;5056212;28;20402;-82
2021/09/02 06:45:06;;;;;;;7.90;6.25;;;;;;;15.05;78.54;93622.53;5062611;28;20060;-82
2021/09/02 06:47:33;;;;;;;9.32;6.75;;;;;;;15.17;76.58;93656.16;5052985;28;20055;-82
2021/09/02 06:50:01;;;;;;;13.30;8.65;;;;;;;14.97;77.07;93641.78;5049949;28;20068;-82
2021/09/02 06:52:28;;;;;;;13.77;8.93;;;;;;;14.93;79.17;93656.16;5053090;28;20056;-82
2021/09/02 06:54:55;;;;;;;8.32;5.90;;;;;;;14.70;79.06;93643.00;5062562;28;20056;-82
2021/09/02 06:57:22;;;;;;;9.95;6.07;;;;;;;14.23;79.26;93592.03;5054611;28;20092;-82
2021/09/02 06:59:49;;;;;;;7.75;6.38;;;;;;;14.51;78.98;93657.00;5054646;28;20456;-82
2021/09/02 07:02:16;;;;;;;9.60;6.45;;;;;;;14.53;79.69;93617.00;5061265;28;20423;-81
2021/09/02 07:04:43;;;;;;;9.85;6.57;;;;;;;14.64;78.30;93599.16;5061987;28;20045;-82
2021/09/02 07:07:11;;;;;;;9.85;6.95;;;;;;;15.08;77.45;93650.53;5069022;28;20094;-82
2021/09/02 07:09:38;;;;;;;9.35;5.97;;;;;;;15.10;77.83;93656.28;5060930;28;20052;-82
2021/09/02 07:12:05;;;;;;;11.90;5.80;;;;;;;15.34;76.51;93658.84;5055818;28;20099;-82
2021/09/02 07:14:33;;;;;;;7.88;5.53;;;;;;;15.13;76.32;93658.41;5052916;28;20098;-83
2021/09/02 07:17:00;;;;;;;9.45;6.18;;;;;;;15.57;76.17;93654.63;5049054;28;20056;-83
2021/09/02 07:19:27;;;;;;;8.65;5.95;;;;;;;15.42;73.54;93624.06;5057471;28;20055;-83
2021/09/02 07:21:57;;;;;;;7.97;5.05;;;;;;;15.52;74.15;93657.91;5055842;28;20188;-82
2021/09/02 07:24:26;;;;;;;10.70;6.25;;;;;;;15.08;74.79;93617.69;5054667;28;20041;-83
2021/09/02 07:26:53;;;;;;;8.70;6.20;;;;;;;15.48;73.68;93581.72;5055863;28;20498;-83
2021/09/02 07:29:19;;;;;;;9.20;5.70;;;;;;;16.02;73.34;93617.66;5067188;28;20140;-82
2021/09/02 07:31:46;;;;;;;6.63;5.32;;;;;;;16.50;70.34;93658.06;5068630;28;20528;-82
2021/09/02 07:34:17;;;;;;;10.02;8.00;;;;;;;16.04;70.43;93563.00;5068457;28;20056;-83
2021/09/02 07:36:44;;;;;;;8.20;5.82;;;;;;;16.79;70.62;93651.00;5068161;28;20048;-83
2021/09/02 07:39:12;;;;;;;8.73;5.45;;;;;;;16.65;70.62;93629.00;5068744;28;20445;-84
2021/09/02 07:41:45;;;;;;;6.38;4.97;;;;;;;16.61;69.24;93570.84;5068048;28;20080;-84
2021/09/02 07:44:12;;;;;;;10.88;6.15;;;;;;;17.01;70.23;93649.47;5069348;28;20527;-84
2021/09/02 07:46:40;;;;;;;10.90;4.57;;;;;;;16.61;69.92;93558.66;5069157;28;20140;-85
2021/09/02 07:49:07;;;;;;;8.40;4.78;;;;;;;17.59;67.71;93670.75;5069116;28;20049;-83
2021/09/02 07:51:34;;;;;;;6.05;4.47;;;;;;;16.92;66.81;93612.78;5069309;28;20050;-84
2021/09/02 07:54:01;;;;;;;8.95;4.55;;;;;;;16.87;67.94;93604.91;5069347;28;20102;-83
2021/09/02 07:56:28;;;;;;;8.23;5.38;;;;;;;16.51;69.63;93657.84;5069340;28;20481;-83
2021/09/02 07:58:56;;;;;;;7.70;5.45;;;;;;;16.18;70.18;93615.31;5069175;28;20480;-83
2021/09/02 08:01:23;;;;;;;6.70;4.63;;;;;;;16.64;70.73;93664.53;5069136;28;20055;-83
2021/09/02 08:03:50;;;;;;;6.55;4.53;;;;;;;16.52;69.94;93592.00;5069011;28;20558;-83
2021/09/02 08:06:18;;;;;;;6.25;4.03;;;;;;;17.17;68.20;93616.78;5068619;28;20501;-84
2021/09/02 08:08:45;;;;;;;6.30;4.38;;;;;;;17.80;65.54;93636.41;5069096;28;20053;-84
2021/09/02 08:11:14;;;;;;;7.95;3.78;;;;;;;18.08;64.16;93630.25;5069423;28;20049;-83
2021/09/02 08:13:42;;;;;;;9.23;5.47;;;;;;;18.64;63.82;93649.16;5069234;28;20417;-85
2021/09/02 08:16:10;;;;;;;4.80;3.58;;;;;;;17.68;62.32;93642.53;5072716;28;20064;-83
2021/09/02 08:18:38;;;;;;;7.82;3.88;;;;;;;17.61;62.17;93634.94;5068813;28;20053;-84
2021/09/02 08:21:05;;;;;;;7.47;3.60;;;;;;;17.15;66.64;93661.13;5070689;28;20071;-84
2021/09/02 08:23:32;;;;;;;8.68;3.83;;;;;;;17.41;65.28;93625.09;5071344;28;20048;-84
2021/09/02 08:26:00;;;;;;;6.82;4.07;;;;;;;17.24;64.34;93604.38;5072382;28;20065;-84
2021/09/02 08:28:27;;;;;;;8.13;3.75;;;;;;;17.94;65.42;93632.41;5072043;28;20055;-83
2021/09/02 08:30:54;;;;;;;9.93;3.90;;;;;;;18.28;64.86;93624.44;5072149;28;20576;-83
2021/09/02 08:33:23;;;;;;;13.02;3.97;;;;;;;19.08;63.86;93635.94;5072177;28;20076;-83
2021/09/02 08:35:51;;;;;;;5.20;2.95;;;;;;;19.64;59.24;93659.91;5072041;28;20072;-83
2021/09/02 08:38:19;;;;;;;8.68;3.33;;;;;;;19.98;58.37;93627.44;5071977;28;20045;-82
2021/09/02 08:40:46;;;;;;;7.32;3.20;;;;;;;20.60;55.96;93639.75;5072072;28;20057;-82
2021/09/02 08:43:14;;;;;;;12.85;3.70;;;;;;;20.92;54.00;93647.31;5071971;28;20078;-83
2021/09/02 08:45:41;;;;;;;6.22;2.95;;;;;;;20.14;52.67;93553.38;5071967;28;20055;-84
2021/09/02 08:48:09;;;;;;;5.30;2.88;;;;;;;19.93;54.10;93646.44;5071855;28;20092;-83
2021/09/02 08:50:40;;;;;;;13.05;3.88;;;;;;;19.85;54.43;93611.22;5071898;28;20113;-83
2021/09/02 08:53:08;;;;;;;4.65;2.67;;;;;;;18.66;56.25;93645.25;5072085;28;20056;-82
2021/09/02 08:55:36;;;;;;;8.35;2.70;;;;;;;18.42;57.06;93645.63;5071412;28;20135;-80
2021/09/02 08:58:03;;;;;;;5.07;2.72;;;;;;;17.88;58.64;93626.38;5071808;28;20048;-83
2021/09/02 09:00:30;;;;;;;4.38;3.15;;;;;;;17.69;59.28;93627.75;5071899;28;20049;-83
2021/09/02 09:02:59;;;;;;;5.68;2.83;;;;;;;17.87;60.45;93645.59;5071620;28;20052;-83
2021/09/02 09:05:28;;;;;;;5.82;3.22;;;;;;;18.35;61.25;93658.03;5071477;28;20067;-82
2021/09/02 09:07:56;;;;;;;13.02;3.58;;;;;;;18.38;59.13;93628.16;5071399;28;20138;-83
2021/09/02 09:10:25;;;;;;;4.85;2.85;;;;;;;18.63;57.87;93645.78;5071669;28;20064;-83
2021/09/02 09:12:56;;;;;;;5.10;3.00;;;;;;;18.65;57.90;93642.94;5071292;28;20056;-83
2021/09/02 09:15:25;;;;;;;8.60;3.53;;;;;;;18.52;58.69;93611.09;5071289;28;20060;-83
2021/09/02 09:17:54;;;;;;;5.78;2.90;;;;;;;18.66;57.11;93608.84;5071360;28;20056;-83
2021/09/02 09:20:22;;;;;;;5.82;3.03;;;;;;;18.82;57.55;93630.56;5071104;28;20094;-82
2021/09/02 09:22:50;;;;;;;4.10;2.47;;;;;;;18.83;56.61;93620.91;5071395;28;20083;-82
2021/09/02 09:25:19;;;;;;;6.82;2.92;;;;;;;19.09;56.55;93647.13;5070509;28;20048;-83
2021/09/02 09:27:50;;;;;;;4.97;2.97;;;;;;;19.13;57.37;93627.38;5071045;28;20431;-82
2021/09/02 09:30:19;;;;;;;5.07;3.17;;;;;;;19.28;56.59;93642.28;5070771;28;20044;-83
2021/09/02 09:32:51;;;;;;;6.40;4.25;;;;;;;19.32;57.21;93643.38;5070533;28;20071;-82
2021/09/02 09:35:20;;;;;;;7.05;2.90;;;;;;;19.31;57.73;93620.94;5070101;28;20051;-82
2021/09/02 09:37:49;;;;;;;8.70;2.63;;;;;;;19.50;57.09;93625.72;5070628;28;20068;-82
2021/09/02 09:40:21;;;;;;;6.10;3.00;;;;;;;19.76;56.02;93633.59;5067758;28;20068;-83
2021/09/02 09:43:09;;;;;;;5.03;2.58;;;;;;;18.68;55.37;93617.19;5070314;28;20045;-83
2021/09/02 09:45:45;;;;;;;6.53;2.55;;;;;;;18.88;56.29;93622.78;5068485;28;20056;-83
2021/09/02 09:48:37;;;;;;;6.78;3.42;;;;;;;19.25;56.60;93640.19;5068113;28;20497;-82
2021/09/02 09:51:13;;;;;;;8.45;3.08;;;;;;;19.48;57.42;93633.78;5055228;28;20060;-82
2021/09/02 09:53:42;;;;;;;5.50;3.42;;;;;;;19.57;56.95;93630.66;5068019;28;20048;-81
2021/09/02 09:56:10;;;;;;;9.23;3.17;;;;;;;19.71;56.24;93636.97;5070300;28;20493;-82
2021/09/02 09:58:37;;;;;;;7.05;3.28;;;;;;;19.89;56.16;93625.31;5070294;28;20060;-81
2021/09/02 10:01:07;;;;;;;6.50;3.15;;;;;;;20.05;55.48;93614.16;5070135;28;20059;-81
2021/09/02 10:03:35;;;;;;;5.65;2.67;;;;;;;19.48;53.45;93594.69;5070486;28;20413;-82
2021/09/02 10:06:06;;;;;;;4.65;2.47;;;;;;;19.55;54.29;93628.34;5070335;28;20048;-82
2021/09/02 10:08:35;;;;;;;5.35;2.30;;;;;;;19.64;53.35;93610.38;5065238;28;20048;-82
2021/09/02 10:11:04;;;;;;;3.97;2.60;;;;;;;19.75;52.65;93595.56;5068244;28;20048;-82
2021/09/02 10:13:32;;;;;;;5.95;2.75;;;;;;;19.39;54.36;93603.28;5069601;28;20045;-82
2021/09/02 10:16:00;;;;;;;5.90;2.53;;;;;;;19.45;53.95;93626.47;5069728;28;20066;-82
2021/09/02 10:18:29;;;;;;;6.80;2.78;;;;;;;18.97;57.15;93616.06;5070490;28;20041;-81
2021/09/02 10:21:00;;;;;;;10.27;3.05;;;;;;;19.26;57.33;93610.53;5070019;28;20111;-81
2021/09/02 10:23:27;;;;;;;7.25;3.08;;;;;;;19.62;55.85;93630.69;5069879;28;20555;-82
2021/09/02 10:25:54;;;;;;;8.02;3.13;;;;;;;19.71;54.60;93623.16;5070288;28;20149;-82
2021/09/02 10:28:29;;;;;;;7.07;2.97;;;;;;;19.86;54.15;93617.22;5069479;28;20047;-82
2021/09/02 10:31:00;;;;;;;9.25;4.05;;;;;;;20.08;54.36;93613.66;5069853;28;20056;-82
2021/09/02 10:33:44;;;;;;;12.10;3.40;;;;;;;20.29;54.19;93620.41;5070030;28;20052;-82
2021/09/02 10:36:43;;;;;;;20.25;4.22;;;;;;;20.48;53.43;93622.53;5069234;28;20097;-82
2021/09/02 10:39:10;;;;;;;4.20;2.67;;;;;;;20.38;52.11;93599.84;5069825;28;20048;-83
2021/09/02 10:41:50;;;;;;;7.30;2.70;;;;;;;20.38;52.29;93617.31;5069309;28;20067;-83
2021/09/02 10:44:22;;;;;;;7.28;2.70;;;;;;;20.32;52.44;93589.66;5069474;28;20139;-82
2021/09/02 10:46:52;;;;;;;5.78;2.50;;;;;;;20.40;51.49;93607.38;5068328;28;20052;-83
2021/09/02 10:49:24;;;;;;;10.15;2.95;;;;;;;20.64;52.70;93619.91;5069300;28;20051;-82
2021/09/02 10:51:53;;;;;;;6.70;2.30;;;;;;;20.76;51.12;93617.81;5069784;28;20528;-82
2021/09/02 10:54:27;;;;;;;8.85;3.15;;;;;;;20.77;51.97;93610.75;5070179;28;20131;-81
2021/09/02 10:57:06;;;;;;;3.65;2.22;;;;;;;20.84;49.99;93611.28;5069388;28;20059;-83
2021/09/02 10:59:46;;;;;;;5.97;2.50;;;;;;;19.99;51.95;93629.78;5069546;28;20048;-83
2021/09/02 11:02:42;;;;;;;11.45;3.45;;;;;;;20.01;52.97;93614.66;5069490;28;20478;-82
2021/09/02 11:05:11;;;;;;;6.47;3.10;;;;;;;20.28;54.12;93629.28;5069228;28;20410;-82
2021/09/02 11:07:40;;;;;;;7.25;3.88;;;;;;;20.48;53.06;93627.75;5068850;28;20110;-81
2021/09/02 11:10:12;;;;;;;8.82;2.88;;;;;;;19.98;52.79;93612.56;5068920;28;20044;-83
2021/09/02 11:12:39;;;;;;;6.03;3.70;;;;;;;20.21;54.05;93625.38;5069036;28;20063;-81
2021/09/02 11:15:08;;;;;;;5.07;2.95;;;;;;;19.82;51.36;93614.34;5068841;28;20082;-83
2021/09/02 11:17:35;;;;;;;6.05;2.55;;;;;;;20.14;51.75;93629.00;5068915;28;20052;-82
2021/09/02 11:20:18;;;;;;;6.00;2.42;;;;;;;19.63;50.36;93534.03;5066541;28;20139;-82
2021/09/02 11:22:45;;;;;;;6.80;2.35;;;;;;;19.76;49.82;93636.22;5063082;28;20600;-80
2021/09/02 11:25:13;;;;;;;4.00;2.17;;;;;;;19.56;50.61;93640.31;5068960;28;20045;-82
2021/09/02 11:27:40;;;;;;;4.03;1.95;;;;;;;19.62;50.06;93622.88;5069073;28;20050;-80
2021/09/02 11:30:19;;;;;;;5.85;2.25;;;;;;;20.01;50.32;93632.13;5068741;28;20045;-82
2021/09/02 11:32:52;;;;;;;3.45;2.15;;;;;;;19.86;50.01;93606.78;5068993;28;20079;-82
2021/09/02 11:35:22;;;;;;;3.30;1.88;;;;;;;19.71;48.90;93563.22;5069043;28;20045;-83
2021/09/02 11:37:49;;;;;;;4.50;2.15;;;;;;;20.21;49.56;93633.19;5068519;28;20078;-84